createdAt,value
2022-09-07T00:00:18.489Z,18.73
2022-09-07T00:01:18.483Z,18.73
2022-09-07T00:02:18.477Z,18.71
2022-09-07T00:03:18.649Z,18.73
2022-09-07T00:04:18.582Z,18.75
2022-09-07T00:05:18.476Z,18.70
2022-09-07T00:06:18.476Z,18.70
2022-09-07T00:07:18.477Z,18.78
2022-09-07T00:08:18.495Z,18.68
2022-09-07T00:09:18.483Z,18.66
2022-09-07T00:10:18.491Z,18.63
2022-09-07T00:11:18.481Z,18.65
2022-09-07T00:12:18.471Z,18.66
2022-09-07T00:13:18.475Z,18.52
2022-09-07T00:14:18.481Z,18.55
2022-09-07T00:15:18.487Z,18.65
2022-09-07T00:16:18.574Z,18.66
2022-09-07T00:17:18.483Z,18.66
2022-09-07T00:18:18.506Z,18.55
2022-09-07T00:19:18.522Z,18.65
2022-09-07T00:20:18.484Z,18.60
2022-09-07T00:21:18.485Z,18.58
2022-09-07T00:22:18.485Z,18.50
2022-09-07T00:23:18.483Z,18.50
2022-09-07T00:24:18.496Z,18.55
2022-09-07T00:25:18.474Z,18.53
2022-09-07T00:26:18.484Z,18.52
2022-09-07T00:27:18.486Z,18.49
2022-09-07T00:28:18.481Z,18.45
2022-09-07T00:29:18.516Z,18.50
2022-09-07T00:30:18.483Z,18.47
2022-09-07T00:31:18.553Z,18.40
2022-09-07T00:32:18.499Z,18.43
2022-09-07T00:33:18.480Z,18.47
2022-09-07T00:34:18.482Z,18.47
2022-09-07T00:35:18.480Z,18.52
2022-09-07T00:36:18.483Z,18.47
2022-09-07T00:37:18.485Z,18.40
2022-09-07T00:38:18.485Z,18.55
2022-09-07T00:39:18.483Z,18.44
2022-09-07T00:40:18.485Z,18.45
2022-09-07T00:41:18.485Z,18.35
2022-09-07T00:42:18.491Z,18.43
2022-09-07T00:43:18.479Z,18.38
2022-09-07T00:44:18.491Z,18.45
2022-09-07T00:45:18.482Z,18.45
2022-09-07T00:46:18.549Z,18.35
2022-09-07T00:47:18.505Z,18.43
2022-09-07T00:48:18.496Z,18.45
2022-09-07T00:49:18.497Z,18.40
2022-09-07T00:50:18.491Z,18.44
2022-09-07T00:51:18.530Z,18.43
2022-09-07T00:52:18.487Z,18.34
2022-09-07T00:53:18.500Z,18.29
2022-09-07T00:54:18.501Z,18.37
2022-09-07T00:55:18.486Z,18.35
2022-09-07T00:56:18.484Z,18.34
2022-09-07T00:57:18.494Z,18.34
2022-09-07T00:58:18.502Z,18.35
2022-09-07T00:59:18.488Z,18.34
2022-09-07T01:00:18.492Z,18.40
2022-09-07T01:01:18.659Z,18.26
2022-09-07T01:02:18.593Z,18.31
2022-09-07T01:03:18.489Z,18.28
2022-09-07T01:04:18.482Z,18.29
2022-09-07T01:05:18.492Z,18.35
2022-09-07T01:06:18.508Z,18.28
2022-09-07T01:07:18.488Z,18.23
2022-09-07T01:08:18.497Z,18.33
2022-09-07T01:09:18.483Z,18.28
2022-09-07T01:10:18.490Z,18.26
2022-09-07T01:11:18.490Z,18.26
2022-09-07T01:12:18.489Z,18.19
2022-09-07T01:13:18.488Z,18.15
2022-09-07T01:14:18.492Z,18.23
2022-09-07T01:15:18.502Z,18.15
2022-09-07T01:16:18.520Z,18.19
2022-09-07T01:17:18.495Z,18.10
2022-09-07T01:18:18.484Z,18.11
2022-09-07T01:19:18.490Z,18.05
2022-09-07T01:20:18.495Z,18.01
2022-09-07T01:21:18.490Z,18.07
2022-09-07T01:22:18.498Z,18.05
2022-09-07T01:23:18.489Z,18.03
2022-09-07T01:24:18.484Z,18.04
2022-09-07T01:25:18.481Z,17.98
2022-09-07T01:26:18.489Z,17.95
2022-09-07T01:27:18.485Z,17.92
2022-09-07T01:28:18.486Z,17.92
2022-09-07T01:29:18.502Z,18.00
2022-09-07T01:30:18.496Z,17.92
2022-09-07T01:31:18.584Z,17.95
2022-09-07T01:32:18.510Z,18.00
2022-09-07T01:33:18.486Z,17.94
2022-09-07T01:34:18.485Z,17.97
2022-09-07T01:35:18.526Z,17.94
2022-09-07T01:36:18.486Z,17.98
2022-09-07T01:37:18.506Z,17.90
2022-09-07T01:38:18.490Z,17.86
2022-09-07T01:39:18.481Z,17.89
2022-09-07T01:40:18.487Z,17.89
2022-09-07T01:41:18.489Z,17.86
2022-09-07T01:42:18.483Z,17.85
2022-09-07T01:43:18.492Z,17.86
2022-09-07T01:44:18.498Z,17.86
2022-09-07T01:45:18.489Z,17.87
2022-09-07T01:46:18.537Z,17.76
2022-09-07T01:47:18.483Z,17.76
2022-09-07T01:48:18.492Z,17.83
2022-09-07T01:49:18.497Z,17.72
2022-09-07T01:50:18.497Z,17.79
2022-09-07T01:51:18.494Z,17.72
2022-09-07T01:52:18.485Z,17.76
2022-09-07T01:53:18.487Z,17.63
2022-09-07T01:54:18.483Z,17.76
2022-09-07T01:55:18.485Z,17.67
2022-09-07T01:56:18.477Z,17.65
2022-09-07T01:57:18.479Z,17.60
2022-09-07T01:58:18.483Z,17.56
2022-09-07T01:59:18.500Z,17.59
2022-09-07T02:00:18.499Z,17.57
2022-09-07T02:01:18.518Z,17.59
2022-09-07T02:02:18.515Z,17.64
2022-09-07T02:03:18.519Z,17.56
2022-09-07T02:04:18.478Z,17.59
2022-09-07T02:05:18.504Z,17.48
2022-09-07T02:06:18.513Z,17.45
2022-09-07T02:07:18.484Z,17.51
2022-09-07T02:08:18.477Z,17.48
2022-09-07T02:09:18.477Z,17.57
2022-09-07T02:10:18.492Z,17.57
2022-09-07T02:11:18.485Z,17.52
2022-09-07T02:12:18.475Z,17.49
2022-09-07T02:13:18.491Z,17.49
2022-09-07T02:14:18.477Z,17.46
2022-09-07T02:15:18.476Z,17.51
2022-09-07T02:16:18.522Z,17.41
2022-09-07T02:17:18.481Z,17.44
2022-09-07T02:18:18.483Z,17.51
2022-09-07T02:19:18.470Z,17.48
2022-09-07T02:20:18.499Z,17.52
2022-09-07T02:21:18.470Z,17.45
2022-09-07T02:22:18.519Z,17.49
2022-09-07T02:23:18.472Z,17.48
2022-09-07T02:24:18.469Z,17.46
2022-09-07T02:25:18.472Z,17.48
2022-09-07T02:26:18.481Z,17.48
2022-09-07T02:27:18.481Z,17.45
2022-09-07T02:28:18.476Z,17.48
2022-09-07T02:29:18.478Z,17.45
2022-09-07T02:30:18.469Z,17.45
2022-09-07T02:31:18.578Z,17.48
2022-09-07T02:32:18.469Z,17.45
2022-09-07T02:33:18.470Z,17.42
2022-09-07T02:34:18.486Z,17.48
2022-09-07T02:35:18.470Z,17.45
2022-09-07T02:36:18.463Z,17.41
2022-09-07T02:37:18.463Z,17.46
2022-09-07T02:38:18.473Z,17.41
2022-09-07T02:39:18.470Z,17.44
2022-09-07T02:40:18.476Z,17.38
2022-09-07T02:41:18.475Z,17.41
2022-09-07T02:42:18.463Z,17.38
2022-09-07T02:43:18.460Z,17.41
2022-09-07T02:44:18.486Z,17.42
2022-09-07T02:45:18.467Z,17.33
2022-09-07T02:46:18.515Z,17.36
2022-09-07T02:47:18.483Z,17.31
2022-09-07T02:48:18.461Z,17.33
2022-09-07T02:49:18.454Z,17.31
2022-09-07T02:50:18.458Z,17.31
2022-09-07T02:51:18.488Z,17.24
2022-09-07T02:52:18.456Z,17.19
2022-09-07T02:53:18.457Z,17.30
2022-09-07T02:54:18.471Z,17.27
2022-09-07T02:55:18.452Z,17.26
2022-09-07T02:56:18.454Z,17.30
2022-09-07T02:57:18.462Z,17.19
2022-09-07T02:58:18.522Z,17.24
2022-09-07T02:59:18.453Z,17.23
2022-09-07T03:00:18.448Z,17.22
2022-09-07T03:01:18.489Z,17.22
2022-09-07T03:02:18.498Z,17.22
2022-09-07T03:03:18.451Z,17.19
2022-09-07T03:04:18.450Z,17.26
2022-09-07T03:05:18.454Z,17.24
2022-09-07T03:06:18.448Z,17.16
2022-09-07T03:07:18.472Z,17.12
2022-09-07T03:08:18.470Z,17.08
2022-09-07T03:09:18.450Z,17.11
2022-09-07T03:10:18.443Z,17.08
2022-09-07T03:11:18.544Z,17.04
2022-09-07T03:12:18.447Z,17.12
2022-09-07T03:13:18.476Z,17.12
2022-09-07T03:14:18.443Z,17.02
2022-09-07T03:15:18.447Z,17.01
2022-09-07T03:16:18.566Z,17.01
2022-09-07T03:17:18.444Z,17.06
2022-09-07T03:18:18.440Z,17.02
2022-09-07T03:19:18.438Z,17.06
2022-09-07T03:20:18.441Z,17.06
2022-09-07T03:21:18.445Z,17.02
2022-09-07T03:22:18.437Z,17.02
2022-09-07T03:23:18.444Z,17.04
2022-09-07T03:24:18.448Z,17.06
2022-09-07T03:25:18.435Z,16.99
2022-09-07T03:26:18.438Z,17.01
2022-09-07T03:27:18.435Z,16.99
2022-09-07T03:28:18.435Z,16.97
2022-09-07T03:29:18.430Z,17.08
2022-09-07T03:30:18.425Z,16.99
2022-09-07T03:31:18.515Z,16.97
2022-09-07T03:32:18.436Z,16.96
2022-09-07T03:33:18.433Z,16.90
2022-09-07T03:34:18.446Z,16.91
2022-09-07T03:35:18.434Z,16.93
2022-09-07T03:36:18.427Z,16.96
2022-09-07T03:37:18.431Z,16.97
2022-09-07T03:38:18.427Z,16.89
2022-09-07T03:39:18.438Z,16.93
2022-09-07T03:40:18.433Z,16.83
2022-09-07T03:41:18.421Z,16.83
2022-09-07T03:42:18.426Z,16.86
2022-09-07T03:43:18.422Z,16.83
2022-09-07T03:44:18.419Z,16.86
2022-09-07T03:45:18.439Z,16.81
2022-09-07T03:46:18.463Z,16.81
2022-09-07T03:47:18.438Z,16.81
2022-09-07T03:48:18.425Z,16.81
2022-09-07T03:49:18.416Z,16.78
2022-09-07T03:50:18.413Z,16.76
2022-09-07T03:51:18.415Z,16.75
2022-09-07T03:52:18.420Z,16.81
2022-09-07T03:53:18.416Z,16.75
2022-09-07T03:54:18.420Z,16.79
2022-09-07T03:55:18.413Z,16.74
2022-09-07T03:56:18.439Z,16.69
2022-09-07T03:57:18.413Z,16.75
2022-09-07T03:58:18.419Z,16.69
2022-09-07T03:59:18.412Z,16.65
2022-09-07T04:00:18.411Z,16.84
2022-09-07T04:01:18.508Z,16.65
2022-09-07T04:02:18.426Z,16.65
2022-09-07T04:03:18.420Z,16.76
2022-09-07T04:04:18.433Z,16.66
2022-09-07T04:05:18.407Z,16.68
2022-09-07T04:06:18.426Z,16.72
2022-09-07T04:07:18.401Z,16.69
2022-09-07T04:08:18.402Z,16.75
2022-09-07T04:09:18.397Z,16.71
2022-09-07T04:10:18.404Z,16.69
2022-09-07T04:11:18.398Z,16.68
2022-09-07T04:12:18.406Z,16.72
2022-09-07T04:13:18.399Z,16.69
2022-09-07T04:14:18.406Z,16.64
2022-09-07T04:15:18.397Z,16.65
2022-09-07T04:16:18.445Z,16.61
2022-09-07T04:17:18.390Z,16.61
2022-09-07T04:18:18.391Z,16.64
2022-09-07T04:19:18.390Z,16.64
2022-09-07T04:20:18.403Z,16.60
2022-09-07T04:21:18.386Z,16.61
2022-09-07T04:22:18.388Z,16.65
2022-09-07T04:23:18.387Z,16.60
2022-09-07T04:24:18.379Z,16.61
2022-09-07T04:25:18.396Z,16.61
2022-09-07T04:26:18.391Z,16.64
2022-09-07T04:27:18.395Z,16.61
2022-09-07T04:28:18.395Z,16.60
2022-09-07T04:29:18.384Z,16.66
2022-09-07T04:30:18.397Z,16.58
2022-09-07T04:31:18.426Z,16.61
2022-09-07T04:32:18.370Z,16.60
2022-09-07T04:33:18.372Z,16.61
2022-09-07T04:34:18.378Z,16.58
2022-09-07T04:35:18.377Z,16.57
2022-09-07T04:36:18.384Z,16.65
2022-09-07T04:37:18.377Z,16.68
2022-09-07T04:38:18.375Z,16.65
2022-09-07T04:39:18.468Z,16.61
2022-09-07T04:40:18.384Z,16.61
2022-09-07T04:41:18.378Z,16.58
2022-09-07T04:42:18.373Z,16.60
2022-09-07T04:43:18.385Z,16.56
2022-09-07T04:44:18.402Z,16.56
2022-09-07T04:45:18.362Z,16.57
2022-09-07T04:46:18.436Z,16.50
2022-09-07T04:47:18.374Z,16.51
2022-09-07T04:48:18.377Z,16.51
2022-09-07T04:49:18.382Z,16.57
2022-09-07T04:50:18.363Z,16.53
2022-09-07T04:51:18.357Z,16.53
2022-09-07T04:52:18.357Z,16.56
2022-09-07T04:53:18.501Z,16.58
2022-09-07T04:54:18.373Z,16.54
2022-09-07T04:55:18.403Z,16.60
2022-09-07T04:56:18.400Z,16.54
2022-09-07T04:57:18.366Z,16.60
2022-09-07T04:58:18.353Z,16.60
2022-09-07T04:59:18.355Z,16.60
2022-09-07T05:00:18.349Z,16.64
2022-09-07T05:01:18.425Z,16.61
2022-09-07T05:02:18.423Z,16.64
2022-09-07T05:03:18.358Z,16.64
2022-09-07T05:04:18.383Z,16.65
2022-09-07T05:05:18.359Z,16.64
2022-09-07T05:06:18.357Z,16.66
2022-09-07T05:07:18.370Z,16.66
2022-09-07T05:08:18.362Z,16.75
2022-09-07T05:09:18.358Z,16.71
2022-09-07T05:10:18.336Z,16.75
2022-09-07T05:11:18.337Z,16.72
2022-09-07T05:12:18.362Z,16.66
2022-09-07T05:13:18.381Z,16.72
2022-09-07T05:14:18.346Z,16.75
2022-09-07T05:15:18.358Z,16.65
2022-09-07T05:16:18.364Z,16.74
2022-09-07T05:17:18.354Z,16.57
2022-09-07T05:18:18.340Z,16.68
2022-09-07T05:19:18.361Z,16.66
2022-09-07T05:20:20.228Z,16.68
2022-09-07T05:21:18.335Z,16.69
2022-09-07T05:22:18.324Z,16.68
2022-09-07T05:23:18.323Z,16.66
2022-09-07T05:24:18.320Z,16.71
2022-09-07T05:25:18.340Z,16.72
2022-09-07T05:26:18.336Z,16.79
2022-09-07T05:27:18.330Z,16.72
2022-09-07T05:28:19.562Z,16.84
2022-09-07T05:31:19.236Z,16.66
2022-09-07T05:32:18.408Z,16.64
2022-09-07T05:33:18.331Z,16.75
2022-09-07T05:34:33.768Z,16.79
2022-09-07T05:35:18.374Z,16.69
2022-09-07T05:36:18.540Z,16.75
2022-09-07T05:37:18.371Z,16.79
2022-09-07T05:38:18.384Z,16.97
2022-09-07T05:39:18.487Z,17.01
2022-09-07T05:40:18.472Z,17.12
2022-09-07T05:41:18.351Z,17.12
2022-09-07T05:42:18.358Z,17.11
2022-09-07T05:43:18.370Z,17.04
2022-09-07T05:45:18.428Z,16.90
2022-09-07T05:46:18.388Z,16.96
2022-09-07T05:48:18.408Z,16.86
2022-09-07T05:49:18.466Z,16.83
2022-09-07T05:50:18.388Z,16.79
2022-09-07T05:51:18.410Z,16.76
2022-09-07T05:52:18.371Z,16.87
2022-09-07T05:53:19.071Z,16.76
2022-09-07T05:54:19.449Z,16.83
2022-09-07T05:55:30.034Z,16.79
2022-09-07T05:56:18.659Z,16.84
2022-09-07T05:57:18.464Z,16.81
2022-09-07T05:58:18.348Z,16.84
2022-09-07T05:59:18.355Z,16.79
2022-09-07T06:00:19.355Z,16.81
2022-09-07T06:01:18.384Z,16.79
2022-09-07T06:02:18.469Z,16.87
2022-09-07T06:03:18.444Z,16.83
2022-09-07T06:04:18.347Z,16.83
2022-09-07T06:05:18.360Z,16.89
2022-09-07T06:06:19.372Z,16.90
2022-09-07T06:07:21.991Z,16.97
2022-09-07T06:08:18.358Z,16.97
2022-09-07T06:09:18.324Z,16.97
2022-09-07T06:10:48.050Z,16.96
2022-09-07T06:11:18.344Z,16.99
2022-09-07T06:12:19.364Z,16.97
2022-09-07T06:13:18.350Z,16.96
2022-09-07T06:14:18.334Z,16.90
2022-09-07T06:15:18.377Z,16.93
2022-09-07T06:16:18.520Z,16.89
2022-09-07T06:17:18.371Z,16.97
2022-09-07T06:18:19.373Z,16.93
2022-09-07T06:19:19.178Z,17.02
2022-09-07T06:20:18.328Z,16.99
2022-09-07T06:21:18.343Z,17.04
2022-09-07T06:22:19.058Z,17.04
2022-09-07T06:23:18.374Z,16.99
2022-09-07T06:24:19.337Z,17.16
2022-09-07T06:25:18.362Z,17.15
2022-09-07T06:26:18.358Z,17.26
2022-09-07T06:27:18.336Z,17.24
2022-09-07T06:28:18.340Z,17.20
2022-09-07T06:29:18.329Z,17.23
2022-09-07T06:30:19.349Z,17.33
2022-09-07T06:31:19.187Z,17.39
2022-09-07T06:33:21.924Z,17.65
2022-09-07T06:34:18.335Z,17.65
2022-09-07T06:35:18.348Z,17.85
2022-09-07T06:36:19.350Z,17.78
2022-09-07T06:37:18.349Z,17.95
2022-09-07T06:38:18.378Z,17.94
2022-09-07T06:39:18.335Z,18.01
2022-09-07T06:40:18.351Z,18.04
2022-09-07T06:42:19.379Z,18.19
2022-09-07T06:43:18.368Z,18.16
2022-09-07T06:44:19.205Z,18.19
2022-09-07T06:45:18.376Z,18.29
2022-09-07T06:47:18.393Z,18.28
2022-09-07T06:48:19.404Z,18.22
2022-09-07T06:49:18.402Z,18.23
2022-09-07T06:50:18.427Z,18.15
2022-09-07T06:51:18.403Z,18.18
2022-09-07T06:52:18.414Z,18.20
2022-09-07T06:55:18.434Z,18.20
2022-09-07T06:56:18.437Z,18.23
2022-09-07T06:57:18.501Z,18.16
2022-09-07T06:58:18.461Z,18.13
2022-09-07T06:59:18.453Z,18.20
2022-09-07T07:00:19.457Z,18.25
2022-09-07T07:01:18.564Z,18.26
2022-09-07T07:02:18.474Z,18.31
2022-09-07T07:03:18.573Z,18.28
2022-09-07T07:04:18.489Z,18.28
2022-09-07T07:05:18.502Z,18.25
2022-09-07T07:06:19.492Z,18.31
2022-09-07T07:07:20.099Z,18.37
2022-09-07T07:08:20.194Z,18.41
2022-09-07T07:09:19.195Z,18.34
2022-09-07T07:10:23.623Z,18.44
2022-09-07T07:11:18.528Z,18.44
2022-09-07T07:14:21.353Z,18.60
2022-09-07T07:15:21.320Z,18.56
2022-09-07T07:17:25.351Z,18.78
2022-09-07T07:18:25.359Z,18.89
2022-09-07T07:20:29.403Z,19.22
2022-09-07T07:21:42.925Z,19.45
2022-09-07T07:23:33.402Z,19.86
2022-09-07T07:24:33.391Z,19.94
2022-09-07T07:26:37.436Z,20.29
2022-09-07T07:27:37.428Z,20.41
2022-09-07T07:29:41.458Z,20.82
2022-09-07T07:30:41.453Z,20.93
2022-09-07T07:32:45.495Z,21.14
2022-09-07T07:33:45.531Z,21.35
2022-09-07T07:35:49.541Z,21.62
2022-09-07T07:36:49.538Z,21.73
2022-09-07T07:39:01.462Z,21.95
2022-09-07T07:40:26.451Z,22.06
2022-09-07T07:42:00.363Z,22.14
2022-09-07T07:42:57.799Z,22.11
2022-09-07T07:43:57.779Z,22.28
2022-09-07T07:45:59.226Z,22.22
2022-09-07T07:46:57.958Z,22.22
2022-09-07T07:47:57.855Z,22.17
2022-09-07T07:48:57.890Z,22.26
2022-09-07T07:50:57.916Z,22.32
2022-09-07T07:53:58.434Z,22.29
2022-09-07T07:54:58.116Z,22.30
2022-09-07T07:55:57.930Z,22.30
2022-09-07T07:56:57.934Z,22.26
2022-09-07T07:57:57.951Z,22.32
2022-09-07T07:58:57.980Z,22.38
2022-09-07T07:59:58.016Z,22.54
2022-09-07T08:00:58.262Z,22.63
2022-09-07T08:01:58.206Z,22.76
2022-09-07T08:02:58.020Z,22.78
2022-09-07T08:03:58.010Z,22.83
2022-09-07T08:04:58.040Z,22.85
2022-09-07T08:05:58.039Z,22.99
2022-09-07T08:06:58.062Z,23.03
2022-09-07T08:07:58.071Z,23.06
2022-09-07T08:08:58.068Z,23.03
2022-09-07T08:09:58.107Z,23.06
2022-09-07T08:10:58.267Z,23.05
2022-09-07T08:11:58.134Z,23.02
2022-09-07T08:12:58.153Z,23.06
2022-09-07T08:13:58.141Z,23.02
2022-09-07T08:14:58.172Z,22.96
2022-09-07T08:15:58.175Z,22.87
2022-09-07T08:16:58.207Z,22.99
2022-09-07T08:17:58.222Z,22.98
2022-09-07T08:18:58.224Z,23.00
2022-09-07T08:19:58.229Z,22.99
2022-09-07T08:20:58.247Z,23.05
2022-09-07T08:21:58.251Z,23.12
2022-09-07T08:22:58.261Z,23.17
2022-09-07T08:23:58.278Z,23.20
2022-09-07T08:24:58.270Z,23.17
2022-09-07T08:25:58.299Z,23.21
2022-09-07T08:26:58.312Z,23.21
2022-09-07T08:27:58.350Z,23.27
2022-09-07T08:28:58.341Z,23.27
2022-09-07T08:29:58.372Z,23.21
2022-09-07T08:30:58.364Z,23.28
2022-09-07T08:31:58.421Z,23.21
2022-09-07T08:32:58.372Z,23.27
2022-09-07T08:33:58.417Z,23.36
2022-09-07T08:34:58.397Z,23.34
2022-09-07T08:35:58.404Z,23.34
2022-09-07T08:36:58.459Z,23.37
2022-09-07T08:37:58.417Z,23.36
2022-09-07T08:38:58.451Z,23.31
2022-09-07T08:39:58.542Z,23.43
2022-09-07T08:40:58.438Z,23.36
2022-09-07T08:41:58.482Z,23.34
2022-09-07T08:42:58.479Z,23.40
2022-09-07T08:43:58.469Z,23.50
2022-09-07T08:44:58.513Z,23.37
2022-09-07T08:45:58.548Z,23.37
2022-09-07T08:46:58.538Z,23.37
2022-09-07T08:47:58.496Z,23.31
2022-09-07T08:48:58.498Z,23.37
2022-09-07T08:49:58.508Z,23.34
2022-09-07T08:50:58.541Z,23.28
2022-09-07T08:51:58.512Z,23.40
2022-09-07T08:52:58.561Z,23.31
2022-09-07T08:53:58.535Z,23.32
2022-09-07T08:54:58.549Z,23.23
2022-09-07T08:55:58.573Z,23.32
2022-09-07T08:57:58.591Z,23.32
2022-09-07T08:58:58.577Z,23.46
2022-09-07T08:59:58.576Z,23.31
2022-09-07T09:03:28.984Z,23.31
2022-09-07T09:05:28.442Z,23.36
2022-09-07T09:05:58.754Z,23.32
2022-09-07T09:06:58.820Z,23.34
2022-09-07T09:07:58.670Z,23.37
2022-09-07T09:08:58.670Z,23.44
2022-09-07T09:09:58.642Z,23.34
2022-09-07T09:10:58.652Z,23.34
2022-09-07T09:11:58.642Z,23.44
2022-09-07T09:12:58.660Z,23.41
2022-09-07T09:13:58.666Z,23.44
2022-09-07T09:14:58.681Z,23.34
2022-09-07T09:15:58.769Z,23.48
2022-09-07T09:16:58.677Z,23.46
2022-09-07T09:17:58.691Z,23.44
2022-09-07T09:18:58.689Z,23.47
2022-09-07T09:19:58.698Z,23.54
2022-09-07T09:20:58.705Z,23.50
2022-09-07T09:21:58.715Z,23.54
2022-09-07T09:22:58.732Z,23.50
2022-09-07T09:23:58.724Z,23.55
2022-09-07T09:24:58.835Z,23.48
2022-09-07T09:25:58.753Z,23.51
2022-09-07T09:26:58.726Z,23.44
2022-09-07T09:27:58.754Z,23.40
2022-09-07T09:28:58.833Z,23.39
2022-09-07T09:29:58.740Z,23.34
2022-09-07T09:30:58.776Z,23.39
2022-09-07T09:31:58.741Z,23.39
2022-09-07T09:32:58.762Z,23.39
2022-09-07T09:33:58.747Z,23.40
2022-09-07T09:34:58.808Z,23.40
2022-09-07T09:35:58.771Z,23.34
2022-09-07T09:36:58.773Z,23.32
2022-09-07T09:37:58.822Z,23.40
2022-09-07T09:38:58.780Z,23.46
2022-09-07T09:40:02.220Z,23.43
2022-09-07T09:40:58.799Z,23.39
2022-09-07T09:41:58.797Z,23.48
2022-09-07T09:42:58.867Z,23.40
2022-09-07T09:43:58.817Z,23.44
2022-09-07T09:44:58.823Z,23.37
2022-09-07T09:46:14.173Z,23.47
2022-09-07T09:47:58.864Z,23.54
2022-09-07T09:48:58.860Z,23.47
2022-09-07T09:49:58.816Z,23.46
2022-09-07T09:52:58.842Z,23.50
2022-09-07T09:53:58.844Z,23.46
2022-09-07T09:55:17.171Z,23.39
2022-09-07T09:55:58.858Z,23.48
2022-09-07T09:56:58.863Z,23.47
2022-09-07T09:59:56.816Z,23.43
2022-09-07T10:00:01.968Z,23.48
2022-09-07T10:01:29.148Z,23.34
2022-09-07T10:04:01.090Z,23.37
2022-09-07T10:04:58.891Z,23.39
2022-09-07T10:05:58.908Z,23.34
2022-09-07T10:06:58.918Z,23.36
2022-09-07T10:07:58.964Z,23.36
2022-09-07T10:08:58.989Z,23.24
2022-09-07T10:09:58.918Z,23.24
2022-09-07T10:10:58.913Z,23.28
2022-09-07T10:12:06.735Z,23.36
2022-09-07T10:12:58.973Z,23.21
2022-09-07T10:13:58.931Z,23.25
2022-09-07T10:14:58.962Z,23.20
2022-09-07T10:15:58.989Z,23.18
2022-09-07T10:16:58.949Z,23.12
2022-09-07T10:17:58.954Z,23.13
2022-09-07T10:18:58.962Z,23.06
2022-09-07T10:19:58.968Z,23.06
2022-09-07T10:20:58.968Z,22.96
2022-09-07T10:21:59.034Z,22.99
2022-09-07T10:22:58.965Z,22.90
2022-09-07T10:23:58.988Z,23.03
2022-09-07T10:24:58.989Z,22.94
2022-09-07T10:25:58.987Z,22.91
2022-09-07T10:26:58.978Z,22.90
2022-09-07T10:27:59.006Z,22.87
2022-09-07T10:29:06.799Z,22.87
2022-09-07T10:29:59.010Z,22.81
2022-09-07T10:30:59.039Z,22.81
2022-09-07T10:31:59.008Z,22.81
2022-09-07T10:32:59.022Z,22.76
2022-09-07T10:34:59.031Z,22.80
2022-09-07T10:35:59.014Z,22.73
2022-09-07T10:36:59.042Z,22.75
2022-09-07T10:37:59.052Z,22.78
2022-09-07T10:38:59.059Z,22.73
2022-09-07T10:40:00.669Z,22.66
2022-09-07T10:40:59.025Z,22.69
2022-09-07T10:41:59.052Z,22.69
2022-09-07T10:43:59.065Z,22.62
2022-09-07T10:44:59.062Z,22.55
2022-09-07T10:45:59.130Z,22.59
2022-09-07T10:46:59.176Z,22.63
2022-09-07T10:47:59.107Z,22.54
2022-09-07T10:48:59.111Z,22.63
2022-09-07T10:50:28.483Z,22.60
2022-09-07T10:51:05.061Z,22.55
2022-09-07T10:51:59.083Z,22.59
2022-09-07T10:52:59.102Z,22.68
2022-09-07T10:54:59.108Z,22.62
2022-09-07T10:55:59.110Z,22.66
2022-09-07T10:56:59.096Z,22.70
2022-09-07T10:57:59.122Z,22.69
2022-09-07T10:59:03.259Z,22.68
2022-09-07T11:00:14.482Z,22.68
2022-09-07T11:00:59.184Z,22.66
2022-09-07T11:01:59.111Z,22.65
2022-09-07T11:03:59.219Z,22.62
2022-09-07T11:04:59.135Z,22.62
2022-09-07T11:05:59.130Z,22.76
2022-09-07T11:06:59.147Z,22.66
2022-09-07T11:07:59.149Z,22.70
2022-09-07T11:09:59.151Z,22.65
2022-09-07T11:10:59.154Z,22.69
2022-09-07T11:12:03.138Z,22.76
2022-09-07T11:12:59.177Z,22.73
2022-09-07T11:14:12.546Z,22.70
2022-09-07T11:14:59.171Z,22.66
2022-09-07T11:15:59.258Z,22.68
2022-09-07T11:16:59.301Z,22.83
2022-09-07T11:17:59.185Z,22.83
2022-09-07T11:19:59.195Z,22.76
2022-09-07T11:20:59.193Z,22.80
2022-09-07T11:21:59.201Z,22.78
2022-09-07T11:22:59.211Z,22.90
2022-09-07T11:23:59.202Z,22.96
2022-09-07T11:25:59.239Z,23.00
2022-09-07T11:26:59.212Z,22.93
2022-09-07T11:27:59.232Z,23.06
2022-09-07T11:29:59.227Z,23.03
2022-09-07T11:31:00.310Z,23.12
2022-09-07T11:31:59.225Z,23.20
2022-09-07T11:32:59.256Z,23.17
2022-09-07T11:34:59.236Z,23.20
2022-09-07T11:35:59.264Z,23.25
2022-09-07T11:36:59.267Z,23.27
2022-09-07T11:37:59.317Z,23.20
2022-09-07T11:38:59.272Z,23.20
2022-09-07T11:39:59.404Z,23.21
2022-09-07T11:40:59.268Z,23.31
2022-09-07T11:41:59.483Z,23.40
2022-09-07T11:42:59.293Z,23.32
2022-09-07T11:43:59.303Z,23.34
2022-09-07T11:44:59.280Z,23.37
2022-09-07T11:45:59.338Z,23.34
2022-09-07T11:46:59.319Z,23.36
2022-09-07T11:47:59.327Z,23.34
2022-09-07T11:48:59.353Z,23.31
2022-09-07T11:49:59.668Z,23.41
2022-09-07T11:50:59.324Z,23.27
2022-09-07T11:52:04.951Z,23.36
2022-09-07T11:52:59.336Z,23.34
2022-09-07T11:53:59.323Z,23.37
2022-09-07T11:54:59.359Z,23.41
2022-09-07T11:55:59.349Z,23.40
2022-09-07T11:56:59.368Z,23.37
2022-09-07T11:57:59.357Z,23.36
2022-09-07T11:58:59.363Z,23.39
2022-09-07T11:59:59.352Z,23.32
2022-09-07T12:00:59.368Z,23.23
2022-09-07T12:01:59.360Z,23.34
2022-09-07T12:03:00.812Z,23.36
2022-09-07T12:03:59.472Z,23.36
2022-09-07T12:04:59.524Z,23.32
2022-09-07T12:05:59.386Z,23.25
2022-09-07T12:06:59.367Z,23.25
2022-09-07T12:07:59.417Z,23.36
2022-09-07T12:08:59.407Z,23.39
2022-09-07T12:09:59.399Z,23.46
2022-09-07T12:10:59.417Z,23.37
2022-09-07T12:11:59.397Z,23.37
2022-09-07T12:12:59.436Z,23.46
2022-09-07T12:13:59.405Z,23.48
2022-09-07T12:14:59.411Z,23.59
2022-09-07T12:15:59.457Z,23.56
2022-09-07T12:16:59.438Z,23.54
2022-09-07T12:17:59.434Z,23.63
2022-09-07T12:18:59.432Z,23.65
2022-09-07T12:19:59.433Z,23.65
2022-09-07T12:20:59.511Z,23.71
2022-09-07T12:21:59.447Z,23.74
2022-09-07T12:23:04.313Z,23.78
2022-09-07T12:23:59.485Z,23.76
2022-09-07T12:24:59.460Z,23.80
2022-09-07T12:25:59.471Z,23.77
2022-09-07T12:26:59.479Z,23.81
2022-09-07T12:27:59.507Z,23.84
2022-09-07T12:28:59.467Z,23.73
2022-09-07T12:29:59.496Z,23.76
2022-09-07T12:30:59.534Z,23.71
2022-09-07T12:32:07.611Z,23.73
2022-09-07T12:32:59.532Z,23.76
2022-09-07T12:33:59.528Z,23.68
2022-09-07T12:34:59.498Z,23.76
2022-09-07T12:35:59.508Z,23.65
2022-09-07T12:36:59.534Z,23.68
2022-09-07T12:37:59.553Z,23.66
2022-09-07T12:38:59.527Z,23.66
2022-09-07T12:39:59.663Z,23.59
2022-09-07T12:40:59.554Z,23.50
2022-09-07T12:43:07.744Z,23.58
2022-09-07T12:44:00.788Z,23.47
2022-09-07T12:44:59.577Z,23.59
2022-09-07T12:45:59.622Z,23.48
2022-09-07T12:46:59.566Z,23.47
2022-09-07T12:47:59.577Z,23.55
2022-09-07T12:48:59.579Z,23.55
2022-09-07T12:49:59.570Z,23.48
2022-09-07T12:50:59.593Z,23.48
2022-09-07T12:52:03.302Z,23.36
2022-09-07T12:52:59.628Z,23.47
2022-09-07T12:53:59.611Z,23.44
2022-09-07T12:55:23.372Z,23.44
2022-09-07T12:57:29.666Z,23.50
2022-09-07T12:57:59.624Z,23.43
2022-09-07T12:58:59.612Z,23.40
2022-09-07T12:59:59.607Z,23.43
2022-09-07T13:00:59.642Z,23.40
2022-09-07T13:01:59.716Z,23.43
2022-09-07T13:02:59.633Z,23.43
2022-09-07T13:03:59.791Z,23.32
2022-09-07T13:04:59.704Z,23.54
2022-09-07T13:05:59.670Z,23.43
2022-09-07T13:07:03.091Z,23.43
2022-09-07T13:08:08.234Z,23.50
2022-09-07T13:08:59.677Z,23.37
2022-09-07T13:09:59.716Z,23.37
2022-09-07T13:10:59.685Z,23.28
2022-09-07T13:11:59.673Z,23.36
2022-09-07T13:12:59.700Z,23.44
2022-09-07T13:14:04.440Z,23.32
2022-09-07T13:14:59.680Z,23.36
2022-09-07T13:15:59.712Z,23.37
2022-09-07T13:17:28.799Z,23.34
2022-09-07T13:17:59.672Z,23.43
2022-09-07T13:18:59.686Z,23.37
2022-09-07T13:19:59.696Z,23.40
2022-09-07T13:20:59.704Z,23.36
2022-09-07T13:21:59.707Z,23.36
2022-09-07T13:22:59.720Z,23.32
2022-09-07T13:23:59.883Z,23.32
2022-09-07T13:24:59.796Z,23.44
2022-09-07T13:25:59.737Z,23.40
2022-09-07T13:26:59.747Z,23.31
2022-09-07T13:27:59.727Z,23.40
2022-09-07T13:29:00.018Z,23.32
2022-09-07T13:29:59.784Z,23.41
2022-09-07T13:30:59.792Z,23.39
2022-09-07T13:32:00.150Z,23.44
2022-09-07T13:33:15.088Z,23.43
2022-09-07T13:33:59.756Z,23.41
2022-09-07T13:34:59.771Z,23.43
2022-09-07T13:35:59.752Z,23.47
2022-09-07T13:36:59.769Z,23.47
2022-09-07T13:37:59.757Z,23.46